createdAt,value
2023-03-26T00:03:08.015Z,99656.97
2023-03-26T00:08:09.891Z,99656.50
2023-03-26T00:13:11.419Z,99663.34
2023-03-26T00:18:12.848Z,99664.84
2023-03-26T00:23:14.240Z,99668.16
2023-03-26T00:28:17.040Z,99677.88
2023-03-26T00:33:18.448Z,99667.75
2023-03-26T00:38:22.338Z,99663.63
2023-03-26T00:43:23.706Z,99671.94
2023-03-26T00:48:38.230Z,99663.66
2023-03-26T00:53:47.985Z,99657.97
2023-03-26T00:58:50.011Z,99645.13
2023-03-26T01:04:07.533Z,99641.81
2023-03-26T01:09:20.688Z,99639.91
2023-03-26T01:14:26.656Z,99639.63
2023-03-26T01:19:37.878Z,99644.19
2023-03-26T01:24:40.825Z,99631.75
2023-03-26T01:30:08.000Z,99633.94
2023-03-26T01:35:32.877Z,99627.56
2023-03-26T01:40:46.650Z,99625.50
2023-03-26T01:45:49.732Z,99617.38
2023-03-26T01:50:53.560Z,99601.25
2023-03-26T01:56:31.373Z,99594.88
2023-03-26T02:01:54.890Z,99591.53
2023-03-26T02:07:09.179Z,99586.28
2023-03-26T02:12:10.878Z,99581.09
2023-03-26T02:17:12.238Z,99579.03
2023-03-26T02:22:16.193Z,99575.72
2023-03-26T02:27:18.361Z,99557.84
2023-03-26T02:32:20.097Z,99558.38
2023-03-26T02:37:21.404Z,99559.88
2023-03-26T02:42:23.025Z,99548.94
2023-03-26T02:47:24.404Z,99547.44
2023-03-26T02:52:25.767Z,99543.44
2023-03-26T02:57:27.173Z,99541.59
2023-03-26T03:02:29.188Z,99528.94
2023-03-26T03:07:30.821Z,99522.97
2023-03-26T03:12:32.145Z,99522.16
2023-03-26T03:17:33.589Z,99518.00
2023-03-26T03:22:36.081Z,99511.41
2023-03-26T03:27:39.265Z,99509.09
2023-03-26T03:32:40.702Z,99509.16
2023-03-26T03:37:42.179Z,99486.25
2023-03-26T03:42:43.561Z,99486.44
2023-03-26T03:47:44.968Z,99488.50
2023-03-26T03:52:46.302Z,99490.22
2023-03-26T03:57:47.872Z,99467.78
2023-03-26T04:02:49.364Z,99459.13
2023-03-26T04:07:50.750Z,99455.44
2023-03-26T04:12:52.203Z,99442.75
2023-03-26T04:17:53.611Z,99443.00
2023-03-26T04:22:55.040Z,99440.81
2023-03-26T04:27:58.373Z,99441.13
2023-03-26T04:33:04.037Z,99433.75
2023-03-26T04:38:06.474Z,99427.59
2023-03-26T04:43:12.195Z,99417.06
2023-03-26T04:48:14.587Z,99400.09
2023-03-26T04:53:21.087Z,99392.81
2023-03-26T04:58:32.746Z,99376.28
2023-03-26T05:03:34.130Z,99375.22
2023-03-26T05:08:35.533Z,99361.25
2023-03-26T05:13:37.557Z,99342.28
2023-03-26T05:18:39.347Z,99331.84
2023-03-26T05:23:40.975Z,99342.78
2023-03-26T05:28:42.652Z,99329.81
2023-03-26T05:33:44.083Z,99316.19
2023-03-26T05:38:49.591Z,99306.25
2023-03-26T05:43:51.198Z,99290.41
2023-03-26T05:48:53.857Z,99279.13
2023-03-26T05:53:55.228Z,99270.25
2023-03-26T05:58:56.992Z,99251.88
2023-03-26T06:03:58.478Z,99260.75
2023-03-26T06:09:02.000Z,99259.50
2023-03-26T06:14:04.127Z,99260.94
2023-03-26T06:19:05.562Z,99256.63
2023-03-26T06:24:07.302Z,99243.56
2023-03-26T06:29:09.092Z,99233.69
2023-03-26T06:34:10.715Z,99222.94
2023-03-26T06:39:12.051Z,99215.13
2023-03-26T06:44:13.419Z,99212.03
2023-03-26T06:49:14.780Z,99209.13
2023-03-26T06:54:16.635Z,99198.19
2023-03-26T06:59:18.101Z,99196.75
2023-03-26T07:04:19.466Z,99192.38
2023-03-26T07:09:20.806Z,99194.00
2023-03-26T07:14:22.133Z,99195.88
2023-03-26T07:19:23.481Z,99191.56
2023-03-26T07:24:25.528Z,99186.38
2023-03-26T07:29:35.239Z,99186.16
2023-03-26T07:35:07.573Z,99161.78
2023-03-26T07:40:46.242Z,99157.22
2023-03-26T07:45:48.015Z,99143.19
2023-03-26T07:50:49.666Z,99140.47
2023-03-26T07:56:03.040Z,99129.50
2023-03-26T08:01:40.456Z,99130.97
2023-03-26T08:06:50.673Z,99120.03
2023-03-26T08:12:07.543Z,99107.84
2023-03-26T08:17:17.053Z,99108.25
2023-03-26T08:22:34.152Z,99105.97
2023-03-26T08:27:49.890Z,99103.09
2023-03-26T08:33:00.202Z,99100.19
2023-03-26T08:38:01.590Z,99102.66
2023-03-26T08:43:23.169Z,99103.91
2023-03-26T08:48:33.419Z,99100.59
2023-03-26T08:53:57.567Z,99083.41
2023-03-26T08:59:25.950Z,99082.38
2023-03-26T09:04:57.486Z,99081.78
2023-03-26T09:10:09.033Z,99054.69
2023-03-26T09:15:16.328Z,99053.88
2023-03-26T09:20:48.256Z,99048.06
2023-03-26T09:26:11.591Z,99063.59
2023-03-26T09:31:31.415Z,99055.16
2023-03-26T09:36:47.793Z,99052.41
2023-03-26T09:42:08.935Z,99031.75
2023-03-26T09:47:49.102Z,99030.25
2023-03-26T09:53:08.971Z,99018.91
2023-03-26T09:58:51.355Z,99019.72
2023-03-26T10:04:02.363Z,99026.75
2023-03-26T10:09:22.548Z,99017.91
2023-03-26T10:14:34.928Z,99005.72
2023-03-26T10:19:51.853Z,99003.06
2023-03-26T10:25:22.883Z,98999.09
2023-03-26T10:30:24.940Z,99004.69
2023-03-26T10:35:45.972Z,98992.72
2023-03-26T10:41:10.838Z,98985.06
2023-03-26T10:46:43.794Z,98985.06
2023-03-26T10:51:53.684Z,98977.63
2023-03-26T10:56:56.409Z,98963.19
2023-03-26T11:02:29.491Z,98950.56
2023-03-26T11:07:44.493Z,98957.38
2023-03-26T11:13:14.896Z,98959.06
2023-03-26T11:18:47.819Z,98950.94
2023-03-26T11:24:04.919Z,98931.00
2023-03-26T11:29:30.934Z,98930.84
2023-03-26T11:34:49.197Z,98926.06
2023-03-26T11:39:55.873Z,98939.31
2023-03-26T11:45:02.416Z,98933.53
2023-03-26T11:50:08.244Z,98929.38
2023-03-26T11:55:12.945Z,98914.56
2023-03-26T12:00:19.395Z,98912.88
2023-03-26T12:05:24.849Z,98910.78
2023-03-26T12:10:38.614Z,98908.53
2023-03-26T12:15:43.782Z,98884.06
2023-03-26T12:20:45.335Z,98880.88
2023-03-26T12:26:05.619Z,98872.31
2023-03-26T12:31:07.514Z,98869.19
2023-03-26T12:36:19.195Z,98859.78
2023-03-26T12:42:36.680Z,98855.16
2023-03-26T12:47:58.789Z,98850.81
2023-03-26T12:53:03.614Z,98839.91
2023-03-26T12:58:28.384Z,98834.72
2023-03-26T13:03:41.751Z,98826.78
2023-03-26T13:09:05.138Z,98824.75
2023-03-26T13:14:26.991Z,98838.50
2023-03-26T13:19:39.146Z,98835.69
2023-03-26T13:25:13.386Z,98818.41
2023-03-26T13:30:32.296Z,98803.72
2023-03-26T13:35:56.528Z,98796.44
2023-03-26T13:41:21.506Z,98778.63
2023-03-26T13:46:48.854Z,98775.19
2023-03-26T13:51:57.950Z,98763.66
2023-03-26T14:02:53.283Z,98756.00
2023-03-26T14:08:13.641Z,98779.66
2023-03-26T14:13:17.980Z,98791.06
2023-03-26T14:18:36.797Z,98784.34
2023-03-26T14:24:11.729Z,98763.59
2023-03-26T14:29:56.642Z,98756.97
2023-03-26T14:35:25.863Z,98744.06
2023-03-26T14:40:52.219Z,98749.00
2023-03-26T14:46:26.542Z,98751.34
2023-03-26T14:51:46.294Z,98745.72
2023-03-26T14:57:12.547Z,98750.16
2023-03-26T15:02:39.510Z,98732.72
2023-03-26T15:08:12.229Z,98729.34
2023-03-26T15:13:42.529Z,98727.94
2023-03-26T15:19:18.716Z,98719.69
2023-03-26T15:24:57.488Z,98720.41
2023-03-26T15:30:15.030Z,98731.69
2023-03-26T15:35:26.935Z,98740.50
2023-03-26T15:40:48.981Z,98766.25
2023-03-26T15:46:24.034Z,98823.34
2023-03-26T15:51:50.851Z,98844.69
2023-03-26T15:57:01.372Z,98875.03
2023-03-26T16:02:34.685Z,98898.09
2023-03-26T16:50:56.697Z,98897.72
2023-03-26T16:56:28.063Z,98901.22
2023-03-26T17:01:45.810Z,98903.69
2023-03-26T17:07:09.022Z,98911.34
2023-03-26T17:12:35.430Z,98905.16
2023-03-26T17:18:09.213Z,98902.69
2023-03-26T17:23:31.095Z,98923.53
2023-03-26T17:29:09.616Z,98931.16
2023-03-26T17:34:39.142Z,98928.06
2023-03-26T17:39:40.684Z,98930.75
2023-03-26T17:44:45.669Z,98935.09
2023-03-26T17:49:50.923Z,98945.22
2023-03-26T17:54:55.751Z,98948.72
2023-03-26T17:59:59.557Z,98953.47
2023-03-26T18:05:03.337Z,98964.19
2023-03-26T18:10:28.826Z,98959.59
2023-03-26T18:15:35.911Z,98960.19
2023-03-26T18:20:38.261Z,98956.63
2023-03-26T18:25:40.994Z,98957.06
2023-03-26T18:30:48.462Z,98964.09
2023-03-26T18:35:54.187Z,98964.72
2023-03-26T18:40:56.353Z,98963.72
2023-03-26T18:45:58.096Z,98969.31
2023-03-26T18:51:05.809Z,98953.00
2023-03-26T18:56:36.083Z,98962.91
2023-03-26T19:01:38.043Z,98970.97
2023-03-26T19:06:42.162Z,98981.47
2023-03-26T19:11:45.283Z,98979.41
2023-03-26T19:16:53.981Z,98983.13
2023-03-26T19:21:58.383Z,98981.50
2023-03-26T19:27:01.198Z,98979.63
2023-03-26T19:32:17.406Z,98988.28
2023-03-26T19:37:22.187Z,98987.63
2023-03-26T19:42:43.063Z,98992.81
2023-03-26T19:47:50.395Z,98994.44
2023-03-26T19:53:16.619Z,99000.84
2023-03-26T19:58:19.573Z,99009.50
2023-03-26T20:03:26.587Z,99008.50
2023-03-26T20:08:28.179Z,99019.69
2023-03-26T20:13:31.116Z,99019.28
2023-03-26T20:18:33.158Z,99030.44
2023-03-26T20:23:34.575Z,99041.56
2023-03-26T20:28:42.451Z,99047.31
2023-03-26T20:33:50.546Z,99053.47
2023-03-26T20:38:52.285Z,99058.41
2023-03-26T20:43:53.638Z,99069.50
2023-03-26T20:48:57.075Z,99076.09
2023-03-26T20:53:58.525Z,99078.72
2023-03-26T20:59:10.375Z,99094.59
2023-03-26T21:04:13.833Z,99106.13
2023-03-26T21:09:23.275Z,99115.78
2023-03-26T21:14:29.987Z,99126.47
2023-03-26T21:19:31.765Z,99149.09
2023-03-26T21:24:58.939Z,99161.34
2023-03-26T21:30:00.567Z,99166.59
2023-03-26T21:35:05.020Z,99182.03
2023-03-26T21:40:25.821Z,99187.41
2023-03-26T21:45:27.757Z,99193.13
2023-03-26T21:50:29.730Z,99203.66
2023-03-26T21:55:40.716Z,99218.13
2023-03-26T22:00:53.961Z,99230.88
2023-03-26T22:06:06.987Z,99242.91
2023-03-26T22:11:11.156Z,99257.53
2023-03-26T22:16:13.017Z,99285.06
2023-03-26T22:21:14.384Z,99309.25
2023-03-26T22:26:16.143Z,99310.53
2023-03-26T22:31:17.694Z,99327.91
2023-03-26T22:36:23.348Z,99334.56
2023-03-26T22:41:25.705Z,99345.28
2023-03-26T22:46:27.540Z,99343.16
2023-03-26T22:51:29.679Z,99359.56
2023-03-26T22:56:31.001Z,99367.53
2023-03-26T23:01:32.658Z,99392.44
2023-03-26T23:06:33.998Z,99403.41
2023-03-26T23:11:35.335Z,99417.44
2023-03-26T23:16:38.347Z,99433.09
2023-03-26T23:21:39.928Z,99439.34
2023-03-26T23:26:50.470Z,99453.66
2023-03-26T23:31:53.876Z,99468.59
2023-03-26T23:36:55.507Z,99472.81
2023-03-26T23:41:56.839Z,99493.94
2023-03-26T23:47:00.424Z,99505.91
2023-03-26T23:52:01.902Z,99525.22
2023-03-26T23:57:03.425Z,99524.09
